sensor_id;sensor_type;location;lat;lon;timestamp;temperature;humidity
47174;DHT22;36730;49.036;9.094;2022-12-07T00:01:18;25.00;53.80
47174;DHT22;36730;49.036;9.094;2022-12-07T00:03:44;25.00;54.10
47174;DHT22;36730;49.036;9.094;2022-12-07T00:06:11;24.90;54.20
47174;DHT22;36730;49.036;9.094;2022-12-07T00:08:36;24.90;53.90
47174;DHT22;36730;49.036;9.094;2022-12-07T00:11:03;24.90;53.30
47174;DHT22;36730;49.036;9.094;2022-12-07T00:13:29;24.90;53.50
47174;DHT22;36730;49.036;9.094;2022-12-07T00:15:54;24.90;54.30
47174;DHT22;36730;49.036;9.094;2022-12-07T00:18:20;24.90;53.80
47174;DHT22;36730;49.036;9.094;2022-12-07T00:20:45;24.90;53.70
47174;DHT22;36730;49.036;9.094;2022-12-07T00:23:11;24.90;53.80
47174;DHT22;36730;49.036;9.094;2022-12-07T00:25:36;24.90;53.80
47174;DHT22;36730;49.036;9.094;2022-12-07T00:28:02;24.90;53.80
47174;DHT22;36730;49.036;9.094;2022-12-07T00:30:27;24.90;53.80
47174;DHT22;36730;49.036;9.094;2022-12-07T00:32:53;24.90;53.80
47174;DHT22;36730;49.036;9.094;2022-12-07T00:35:18;24.90;53.30
47174;DHT22;36730;49.036;9.094;2022-12-07T00:37:44;24.90;54.10
47174;DHT22;36730;49.036;9.094;2022-12-07T00:40:09;24.90;53.80
47174;DHT22;36730;49.036;9.094;2022-12-07T00:42:35;24.80;53.00
47174;DHT22;36730;49.036;9.094;2022-12-07T00:45:00;24.90;53.50
47174;DHT22;36730;49.036;9.094;2022-12-07T00:47:26;24.80;53.90
47174;DHT22;36730;49.036;9.094;2022-12-07T00:49:51;24.80;53.80
47174;DHT22;36730;49.036;9.094;2022-12-07T00:52:16;24.80;53.60
47174;DHT22;36730;49.036;9.094;2022-12-07T00:54:42;24.80;53.80
47174;DHT22;36730;49.036;9.094;2022-12-07T00:57:07;24.80;53.50
47174;DHT22;36730;49.036;9.094;2022-12-07T00:59:33;24.80;53.30
47174;DHT22;36730;49.036;9.094;2022-12-07T01:01:58;24.80;53.80
47174;DHT22;36730;49.036;9.094;2022-12-07T01:04:24;24.80;53.80
47174;DHT22;36730;49.036;9.094;2022-12-07T01:06:49;24.80;54.10
47174;DHT22;36730;49.036;9.094;2022-12-07T01:09:15;24.80;53.20
47174;DHT22;36730;49.036;9.094;2022-12-07T01:11:40;24.80;53.90
47174;DHT22;36730;49.036;9.094;2022-12-07T01:14:06;24.80;53.30
47174;DHT22;36730;49.036;9.094;2022-12-07T01:16:32;24.80;53.30
47174;DHT22;36730;49.036;9.094;2022-12-07T01:18:57;24.80;53.50
47174;DHT22;36730;49.036;9.094;2022-12-07T01:21:25;24.80;53.50
47174;DHT22;36730;49.036;9.094;2022-12-07T01:23:51;24.80;53.60
47174;DHT22;36730;49.036;9.094;2022-12-07T01:26:18;24.80;53.50
47174;DHT22;36730;49.036;9.094;2022-12-07T01:28:44;24.80;53.50
47174;DHT22;36730;49.036;9.094;2022-12-07T01:31:12;24.80;53.30
47174;DHT22;36730;49.036;9.094;2022-12-07T01:33:38;24.80;53.40
47174;DHT22;36730;49.036;9.094;2022-12-07T01:36:04;24.80;53.20
47174;DHT22;36730;49.036;9.094;2022-12-07T01:38:30;24.80;53.90
47174;DHT22;36730;49.036;9.094;2022-12-07T01:40:56;24.80;53.70
47174;DHT22;36730;49.036;9.094;2022-12-07T01:43:22;24.70;53.00
47174;DHT22;36730;49.036;9.094;2022-12-07T01:45:48;24.70;54.00
47174;DHT22;36730;49.036;9.094;2022-12-07T01:48:14;24.70;53.90
47174;DHT22;36730;49.036;9.094;2022-12-07T01:50:41;24.70;53.70
47174;DHT22;36730;49.036;9.094;2022-12-07T01:53:08;24.70;53.00
47174;DHT22;36730;49.036;9.094;2022-12-07T01:55:34;24.70;53.20
47174;DHT22;36730;49.036;9.094;2022-12-07T01:58:02;24.70;53.00
47174;DHT22;36730;49.036;9.094;2022-12-07T02:00:28;24.70;53.40
47174;DHT22;36730;49.036;9.094;2022-12-07T02:02:59;24.70;53.80
47174;DHT22;36730;49.036;9.094;2022-12-07T02:05:26;24.70;53.60
47174;DHT22;36730;49.036;9.094;2022-12-07T02:07:53;24.70;53.10
47174;DHT22;36730;49.036;9.094;2022-12-07T02:10:23;24.60;52.70
47174;DHT22;36730;49.036;9.094;2022-12-07T02:13:00;24.60;52.70
47174;DHT22;36730;49.036;9.094;2022-12-07T02:15:33;24.60;52.70
47174;DHT22;36730;49.036;9.094;2022-12-07T02:18:43;24.60;53.10
47174;DHT22;36730;49.036;9.094;2022-12-07T02:28:35;24.60;53.00
47174;DHT22;36730;49.036;9.094;2022-12-07T02:31:06;24.50;53.00
47174;DHT22;36730;49.036;9.094;2022-12-07T02:33:35;24.50;52.90
47174;DHT22;36730;49.036;9.094;2022-12-07T02:36:02;24.50;53.10
47174;DHT22;36730;49.036;9.094;2022-12-07T02:38:46;24.50;53.50
47174;DHT22;36730;49.036;9.094;2022-12-07T02:41:18;24.60;52.70
47174;DHT22;36730;49.036;9.094;2022-12-07T02:43:46;24.50;53.40
47174;DHT22;36730;49.036;9.094;2022-12-07T02:46:14;24.50;52.50
47174;DHT22;36730;49.036;9.094;2022-12-07T02:48:41;24.50;52.70
47174;DHT22;36730;49.036;9.094;2022-12-07T02:51:07;24.50;52.60
47174;DHT22;36730;49.036;9.094;2022-12-07T02:56:12;24.50;52.30
47174;DHT22;36730;49.036;9.094;2022-12-07T02:58:56;24.40;52.90
47174;DHT22;36730;49.036;9.094;2022-12-07T03:04:12;24.40;53.30
47174;DHT22;36730;49.036;9.094;2022-12-07T03:06:48;24.40;52.90
47174;DHT22;36730;49.036;9.094;2022-12-07T03:09:16;24.40;53.00
47174;DHT22;36730;49.036;9.094;2022-12-07T03:11:50;24.40;53.10
47174;DHT22;36730;49.036;9.094;2022-12-07T03:14:21;24.40;53.10
47174;DHT22;36730;49.036;9.094;2022-12-07T03:17:24;24.40;52.70
47174;DHT22;36730;49.036;9.094;2022-12-07T03:19:40;24.40;53.00
47174;DHT22;36730;49.036;9.094;2022-12-07T03:22:07;24.40;52.70
47174;DHT22;36730;49.036;9.094;2022-12-07T03:24:37;24.40;52.70
47174;DHT22;36730;49.036;9.094;2022-12-07T03:27:06;24.40;52.30
47174;DHT22;36730;49.036;9.094;2022-12-07T03:29:37;24.40;52.40
47174;DHT22;36730;49.036;9.094;2022-12-07T03:32:08;24.40;52.50
47174;DHT22;36730;49.036;9.094;2022-12-07T03:34:38;24.30;52.40
47174;DHT22;36730;49.036;9.094;2022-12-07T03:42:21;24.30;52.80
47174;DHT22;36730;49.036;9.094;2022-12-07T03:44:47;24.30;52.50
47174;DHT22;36730;49.036;9.094;2022-12-07T03:47:17;24.30;52.40
47174;DHT22;36730;49.036;9.094;2022-12-07T03:49:48;24.30;52.40
47174;DHT22;36730;49.036;9.094;2022-12-07T03:52:51;24.30;52.40
47174;DHT22;36730;49.036;9.094;2022-12-07T03:55:14;24.30;52.40
47174;DHT22;36730;49.036;9.094;2022-12-07T03:57:41;24.30;52.00
47174;DHT22;36730;49.036;9.094;2022-12-07T04:00:09;24.30;52.20
47174;DHT22;36730;49.036;9.094;2022-12-07T04:02:34;24.30;52.20
47174;DHT22;36730;49.036;9.094;2022-12-07T04:05:01;24.30;52.20
47174;DHT22;36730;49.036;9.094;2022-12-07T04:07:26;24.30;52.40
47174;DHT22;36730;49.036;9.094;2022-12-07T04:09:52;24.20;52.40
47174;DHT22;36730;49.036;9.094;2022-12-07T04:12:20;24.20;52.40
47174;DHT22;36730;49.036;9.094;2022-12-07T04:14:45;24.20;52.50
47174;DHT22;36730;49.036;9.094;2022-12-07T04:17:11;24.20;52.70
47174;DHT22;36730;49.036;9.094;2022-12-07T04:19:36;24.30;52.50
47174;DHT22;36730;49.036;9.094;2022-12-07T04:22:02;24.30;52.20
47174;DHT22;36730;49.036;9.094;2022-12-07T04:24:28;24.30;52.40
47174;DHT22;36730;49.036;9.094;2022-12-07T04:26:54;24.30;52.40
47174;DHT22;36730;49.036;9.094;2022-12-07T04:29:20;24.30;51.80
47174;DHT22;36730;49.036;9.094;2022-12-07T04:31:45;24.30;52.10
47174;DHT22;36730;49.036;9.094;2022-12-07T04:34:11;24.30;52.40
47174;DHT22;36730;49.036;9.094;2022-12-07T04:36:37;24.30;52.30
47174;DHT22;36730;49.036;9.094;2022-12-07T04:39:03;24.30;52.40
47174;DHT22;36730;49.036;9.094;2022-12-07T04:41:28;24.30;52.70
47174;DHT22;36730;49.036;9.094;2022-12-07T04:43:54;24.40;52.50
47174;DHT22;36730;49.036;9.094;2022-12-07T04:46:20;24.40;52.50
47174;DHT22;36730;49.036;9.094;2022-12-07T04:48:46;24.40;52.20
47174;DHT22;36730;49.036;9.094;2022-12-07T04:51:11;24.40;52.30
47174;DHT22;36730;49.036;9.094;2022-12-07T04:53:37;24.50;52.80
47174;DHT22;36730;49.036;9.094;2022-12-07T04:56:03;24.50;52.70
47174;DHT22;36730;49.036;9.094;2022-12-07T04:58:28;24.60;52.70
47174;DHT22;36730;49.036;9.094;2022-12-07T05:00:54;24.60;52.60
47174;DHT22;36730;49.036;9.094;2022-12-07T05:03:20;24.70;52.50
47174;DHT22;36730;49.036;9.094;2022-12-07T05:05:45;24.70;52.50
47174;DHT22;36730;49.036;9.094;2022-12-07T05:08:11;24.80;52.90
47174;DHT22;36730;49.036;9.094;2022-12-07T05:10:36;24.80;52.50
47174;DHT22;36730;49.036;9.094;2022-12-07T05:13:02;24.80;52.50
47174;DHT22;36730;49.036;9.094;2022-12-07T05:15:27;24.90;52.70
47174;DHT22;36730;49.036;9.094;2022-12-07T05:17:53;24.90;52.70
47174;DHT22;36730;49.036;9.094;2022-12-07T05:20:18;25.00;52.70
47174;DHT22;36730;49.036;9.094;2022-12-07T05:22:44;25.00;53.20
47174;DHT22;36730;49.036;9.094;2022-12-07T05:25:09;25.00;52.30
47174;DHT22;36730;49.036;9.094;2022-12-07T05:27:35;25.10;52.30
47174;DHT22;36730;49.036;9.094;2022-12-07T05:30:01;25.10;52.20
47174;DHT22;36730;49.036;9.094;2022-12-07T05:32:26;25.10;52.40
47174;DHT22;36730;49.036;9.094;2022-12-07T05:34:52;25.10;52.90
47174;DHT22;36730;49.036;9.094;2022-12-07T05:37:20;25.20;52.60
47174;DHT22;36730;49.036;9.094;2022-12-07T05:39:45;25.20;53.10
47174;DHT22;36730;49.036;9.094;2022-12-07T05:42:10;25.20;52.90
47174;DHT22;36730;49.036;9.094;2022-12-07T05:44:40;25.20;52.60
47174;DHT22;36730;49.036;9.094;2022-12-07T05:47:06;25.30;53.10
47174;DHT22;36730;49.036;9.094;2022-12-07T05:49:32;25.30;53.50
47174;DHT22;36730;49.036;9.094;2022-12-07T05:51:57;25.30;52.90
47174;DHT22;36730;49.036;9.094;2022-12-07T05:54:23;25.40;53.40
47174;DHT22;36730;49.036;9.094;2022-12-07T05:56:49;25.40;53.30
47174;DHT22;36730;49.036;9.094;2022-12-07T05:59:14;25.40;53.40
47174;DHT22;36730;49.036;9.094;2022-12-07T06:04:17;25.50;53.30
47174;DHT22;36730;49.036;9.094;2022-12-07T06:06:43;25.50;53.10
47174;DHT22;36730;49.036;9.094;2022-12-07T06:09:08;25.60;53.00
47174;DHT22;36730;49.036;9.094;2022-12-07T06:11:34;25.60;53.20
47174;DHT22;36730;49.036;9.094;2022-12-07T06:14:18;25.60;53.20
47174;DHT22;36730;49.036;9.094;2022-12-07T06:16:43;25.70;52.90
47174;DHT22;36730;49.036;9.094;2022-12-07T06:19:09;25.70;53.30
47174;DHT22;36730;49.036;9.094;2022-12-07T06:21:34;25.70;53.00
47174;DHT22;36730;49.036;9.094;2022-12-07T06:24:00;25.70;53.30
47174;DHT22;36730;49.036;9.094;2022-12-07T06:26:26;25.70;53.40
47174;DHT22;36730;49.036;9.094;2022-12-07T06:28:51;25.70;52.30
47174;DHT22;36730;49.036;9.094;2022-12-07T06:31:17;25.70;53.30
47174;DHT22;36730;49.036;9.094;2022-12-07T06:33:42;25.70;51.40
47174;DHT22;36730;49.036;9.094;2022-12-07T06:36:08;25.80;51.90
47174;DHT22;36730;49.036;9.094;2022-12-07T06:38:34;25.80;52.70
47174;DHT22;36730;49.036;9.094;2022-12-07T06:40:59;25.80;52.90
47174;DHT22;36730;49.036;9.094;2022-12-07T06:43:25;25.80;52.10
47174;DHT22;36730;49.036;9.094;2022-12-07T06:45:51;25.90;52.50
47174;DHT22;36730;49.036;9.094;2022-12-07T06:48:16;25.90;52.10
47174;DHT22;36730;49.036;9.094;2022-12-07T06:50:44;25.90;51.20
47174;DHT22;36730;49.036;9.094;2022-12-07T06:53:09;26.00;52.30
47174;DHT22;36730;49.036;9.094;2022-12-07T06:55:35;26.00;52.30
47174;DHT22;36730;49.036;9.094;2022-12-07T06:58:00;26.00;51.70
47174;DHT22;36730;49.036;9.094;2022-12-07T07:00:26;26.00;51.30
47174;DHT22;36730;49.036;9.094;2022-12-07T07:02:52;26.00;51.40
47174;DHT22;36730;49.036;9.094;2022-12-07T07:05:17;26.10;53.50
47174;DHT22;36730;49.036;9.094;2022-12-07T07:07:43;26.10;52.90
47174;DHT22;36730;49.036;9.094;2022-12-07T07:10:08;26.10;51.40
47174;DHT22;36730;49.036;9.094;2022-12-07T07:12:34;26.10;50.80
47174;DHT22;36730;49.036;9.094;2022-12-07T07:14:59;26.10;53.30
47174;DHT22;36730;49.036;9.094;2022-12-07T07:17:25;26.10;53.90
47174;DHT22;36730;49.036;9.094;2022-12-07T07:19:50;26.20;53.40
47174;DHT22;36730;49.036;9.094;2022-12-07T07:22:16;26.20;52.20
47174;DHT22;36730;49.036;9.094;2022-12-07T07:24:41;26.20;54.70
47174;DHT22;36730;49.036;9.094;2022-12-07T07:27:07;26.20;54.30
47174;DHT22;36730;49.036;9.094;2022-12-07T07:29:33;26.20;54.30
47174;DHT22;36730;49.036;9.094;2022-12-07T07:31:59;26.20;53.10
47174;DHT22;36730;49.036;9.094;2022-12-07T07:34:24;26.30;54.10
47174;DHT22;36730;49.036;9.094;2022-12-07T07:36:50;26.30;54.90
47174;DHT22;36730;49.036;9.094;2022-12-07T07:39:15;26.30;57.00
47174;DHT22;36730;49.036;9.094;2022-12-07T07:41:41;26.30;54.00
47174;DHT22;36730;49.036;9.094;2022-12-07T07:44:06;26.30;53.80
47174;DHT22;36730;49.036;9.094;2022-12-07T07:46:32;26.30;54.70
47174;DHT22;36730;49.036;9.094;2022-12-07T07:48:58;26.30;50.90
47174;DHT22;36730;49.036;9.094;2022-12-07T07:51:23;26.40;56.40
47174;DHT22;36730;49.036;9.094;2022-12-07T07:53:49;26.40;55.00
47174;DHT22;36730;49.036;9.094;2022-12-07T07:56:14;26.40;58.40
47174;DHT22;36730;49.036;9.094;2022-12-07T07:58:40;26.40;55.90
47174;DHT22;36730;49.036;9.094;2022-12-07T08:01:06;26.40;56.20
47174;DHT22;36730;49.036;9.094;2022-12-07T08:03:31;26.40;53.60
47174;DHT22;36730;49.036;9.094;2022-12-07T08:05:57;26.40;52.40
47174;DHT22;36730;49.036;9.094;2022-12-07T08:08:22;26.40;52.30
47174;DHT22;36730;49.036;9.094;2022-12-07T08:10:48;26.50;53.90
47174;DHT22;36730;49.036;9.094;2022-12-07T08:13:15;26.50;52.60
47174;DHT22;36730;49.036;9.094;2022-12-07T08:15:44;26.50;52.70
47174;DHT22;36730;49.036;9.094;2022-12-07T08:18:10;26.50;52.40
47174;DHT22;36730;49.036;9.094;2022-12-07T08:20:36;26.50;53.10
47174;DHT22;36730;49.036;9.094;2022-12-07T08:23:03;26.50;54.80
47174;DHT22;36730;49.036;9.094;2022-12-07T08:25:28;26.50;52.70
47174;DHT22;36730;49.036;9.094;2022-12-07T08:27:54;26.60;58.40
47174;DHT22;36730;49.036;9.094;2022-12-07T08:30:20;26.50;56.00
47174;DHT22;36730;49.036;9.094;2022-12-07T08:32:45;26.50;55.70
47174;DHT22;36730;49.036;9.094;2022-12-07T08:35:11;26.60;52.80
47174;DHT22;36730;49.036;9.094;2022-12-07T08:37:38;26.60;51.50
47174;DHT22;36730;49.036;9.094;2022-12-07T08:40:04;26.60;52.60
47174;DHT22;36730;49.036;9.094;2022-12-07T08:42:30;26.60;53.70
47174;DHT22;36730;49.036;9.094;2022-12-07T08:45:06;26.70;53.40
47174;DHT22;36730;49.036;9.094;2022-12-07T08:47:33;26.70;54.00
47174;DHT22;36730;49.036;9.094;2022-12-07T08:49:59;26.70;50.90
47174;DHT22;36730;49.036;9.094;2022-12-07T08:52:31;26.70;53.90
47174;DHT22;36730;49.036;9.094;2022-12-07T08:54:57;26.70;54.00
47174;DHT22;36730;49.036;9.094;2022-12-07T08:57:23;26.70;53.30
47174;DHT22;36730;49.036;9.094;2022-12-07T08:59:48;26.70;53.70
47174;DHT22;36730;49.036;9.094;2022-12-07T09:02:14;26.70;52.90
47174;DHT22;36730;49.036;9.094;2022-12-07T09:04:39;26.70;52.40
47174;DHT22;36730;49.036;9.094;2022-12-07T09:07:05;26.70;51.00
47174;DHT22;36730;49.036;9.094;2022-12-07T09:09:31;26.70;51.80
47174;DHT22;36730;49.036;9.094;2022-12-07T09:11:57;26.70;52.40
47174;DHT22;36730;49.036;9.094;2022-12-07T09:14:22;26.80;54.80
47174;DHT22;36730;49.036;9.094;2022-12-07T09:16:48;26.80;52.30
47174;DHT22;36730;49.036;9.094;2022-12-07T09:19:13;26.80;52.70
47174;DHT22;36730;49.036;9.094;2022-12-07T09:21:39;26.80;52.80
47174;DHT22;36730;49.036;9.094;2022-12-07T09:24:04;26.80;51.10
47174;DHT22;36730;49.036;9.094;2022-12-07T09:26:30;26.90;50.70
47174;DHT22;36730;49.036;9.094;2022-12-07T09:28:55;26.90;53.00
47174;DHT22;36730;49.036;9.094;2022-12-07T09:31:21;26.90;54.70
47174;DHT22;36730;49.036;9.094;2022-12-07T09:33:46;26.90;51.40
47174;DHT22;36730;49.036;9.094;2022-12-07T09:36:12;26.90;54.30
47174;DHT22;36730;49.036;9.094;2022-12-07T09:38:37;26.90;55.40
47174;DHT22;36730;49.036;9.094;2022-12-07T09:41:04;26.90;56.30
47174;DHT22;36730;49.036;9.094;2022-12-07T09:43:29;26.90;57.10
47174;DHT22;36730;49.036;9.094;2022-12-07T09:45:55;26.80;56.90
47174;DHT22;36730;49.036;9.094;2022-12-07T09:48:22;26.80;54.10
47174;DHT22;36730;49.036;9.094;2022-12-07T09:50:49;26.80;51.70
47174;DHT22;36730;49.036;9.094;2022-12-07T09:53:18;26.80;51.40
47174;DHT22;36730;49.036;9.094;2022-12-07T09:55:45;26.80;52.60
47174;DHT22;36730;49.036;9.094;2022-12-07T09:58:22;26.80;53.30
47174;DHT22;36730;49.036;9.094;2022-12-07T10:00:49;26.80;53.80
47174;DHT22;36730;49.036;9.094;2022-12-07T10:03:15;26.80;53.60
47174;DHT22;36730;49.036;9.094;2022-12-07T10:05:43;26.80;53.80
47174;DHT22;36730;49.036;9.094;2022-12-07T10:08:12;26.80;52.80
47174;DHT22;36730;49.036;9.094;2022-12-07T10:10:38;26.90;53.10
47174;DHT22;36730;49.036;9.094;2022-12-07T10:13:06;26.80;52.10
47174;DHT22;36730;49.036;9.094;2022-12-07T10:15:51;26.90;51.10
47174;DHT22;36730;49.036;9.094;2022-12-07T10:18:25;26.90;53.90
47174;DHT22;36730;49.036;9.094;2022-12-07T10:20:59;26.80;53.10
47174;DHT22;36730;49.036;9.094;2022-12-07T10:23:25;26.80;53.60
47174;DHT22;36730;49.036;9.094;2022-12-07T10:25:50;26.80;52.70
47174;DHT22;36730;49.036;9.094;2022-12-07T10:28:20;26.80;52.20
47174;DHT22;36730;49.036;9.094;2022-12-07T10:33:57;26.90;51.50
47174;DHT22;36730;49.036;9.094;2022-12-07T10:38:46;26.90;50.70
47174;DHT22;36730;49.036;9.094;2022-12-07T10:41:11;26.90;51.40
47174;DHT22;36730;49.036;9.094;2022-12-07T10:43:37;26.90;49.80
47174;DHT22;36730;49.036;9.094;2022-12-07T10:56:21;26.90;49.60
47174;DHT22;36730;49.036;9.094;2022-12-07T11:04:18;26.90;53.30
47174;DHT22;36730;49.036;9.094;2022-12-07T11:06:50;26.90;50.80
47174;DHT22;36730;49.036;9.094;2022-12-07T11:09:34;26.90;48.60
47174;DHT22;36730;49.036;9.094;2022-12-07T11:14:44;26.80;51.30
47174;DHT22;36730;49.036;9.094;2022-12-07T11:17:26;26.80;51.10
47174;DHT22;36730;49.036;9.094;2022-12-07T11:28:01;26.90;49.20
47174;DHT22;36730;49.036;9.094;2022-12-07T11:30:31;26.90;48.60
47174;DHT22;36730;49.036;9.094;2022-12-07T11:33:01;26.90;49.70
47174;DHT22;36730;49.036;9.094;2022-12-07T11:38:17;26.90;54.30
47174;DHT22;36730;49.036;9.094;2022-12-07T11:40:43;26.90;49.40
47174;DHT22;36730;49.036;9.094;2022-12-07T11:45:46;26.90;50.20
47174;DHT22;36730;49.036;9.094;2022-12-07T11:48:19;26.90;50.40
47174;DHT22;36730;49.036;9.094;2022-12-07T11:50:52;26.90;49.70
47174;DHT22;36730;49.036;9.094;2022-12-07T11:56:13;26.90;50.80
47174;DHT22;36730;49.036;9.094;2022-12-07T12:01:14;26.90;50.50
47174;DHT22;36730;49.036;9.094;2022-12-07T12:03:47;27.00;50.90
47174;DHT22;36730;49.036;9.094;2022-12-07T12:06:12;27.00;50.60
47174;DHT22;36730;49.036;9.094;2022-12-07T12:08:39;27.00;49.00
47174;DHT22;36730;49.036;9.094;2022-12-07T12:11:12;27.00;49.80
47174;DHT22;36730;49.036;9.094;2022-12-07T12:21:40;27.00;50.60
47174;DHT22;36730;49.036;9.094;2022-12-07T12:24:11;27.00;50.80
47174;DHT22;36730;49.036;9.094;2022-12-07T12:26:38;27.00;50.70
47174;DHT22;36730;49.036;9.094;2022-12-07T12:29:05;27.00;50.30
47174;DHT22;36730;49.036;9.094;2022-12-07T12:33:58;27.00;50.30
47174;DHT22;36730;49.036;9.094;2022-12-07T12:44:02;27.00;49.10
47174;DHT22;36730;49.036;9.094;2022-12-07T12:51:42;27.10;47.60
47174;DHT22;36730;49.036;9.094;2022-12-07T12:54:14;27.00;47.60
47174;DHT22;36730;49.036;9.094;2022-12-07T12:56:43;27.00;47.10
47174;DHT22;36730;49.036;9.094;2022-12-07T13:00:15;27.10;48.30
47174;DHT22;36730;49.036;9.094;2022-12-07T13:04:59;27.00;47.60
47174;DHT22;36730;49.036;9.094;2022-12-07T13:10:20;27.10;47.30
47174;DHT22;36730;49.036;9.094;2022-12-07T13:18:22;27.00;47.60
47174;DHT22;36730;49.036;9.094;2022-12-07T13:20:55;27.00;48.50
47174;DHT22;36730;49.036;9.094;2022-12-07T13:23:25;27.10;47.10
47174;DHT22;36730;49.036;9.094;2022-12-07T13:25:54;27.10;47.40
47174;DHT22;36730;49.036;9.094;2022-12-07T13:28:21;27.10;47.70
47174;DHT22;36730;49.036;9.094;2022-12-07T13:33:22;27.10;48.20
47174;DHT22;36730;49.036;9.094;2022-12-07T13:35:48;27.00;49.70
47174;DHT22;36730;49.036;9.094;2022-12-07T13:38:22;27.00;49.00
47174;DHT22;36730;49.036;9.094;2022-12-07T13:41:10;27.00;48.40
47174;DHT22;36730;49.036;9.094;2022-12-07T13:43:43;27.10;47.40
47174;DHT22;36730;49.036;9.094;2022-12-07T13:46:08;27.00;47.80
47174;DHT22;36730;49.036;9.094;2022-12-07T13:48:52;27.00;47.50
47174;DHT22;36730;49.036;9.094;2022-12-07T13:51:24;27.00;49.10
47174;DHT22;36730;49.036;9.094;2022-12-07T13:54:08;27.00;47.40
47174;DHT22;36730;49.036;9.094;2022-12-07T13:56:35;27.00;47.40
47174;DHT22;36730;49.036;9.094;2022-12-07T13:59:01;27.10;47.60
47174;DHT22;36730;49.036;9.094;2022-12-07T14:01:26;27.10;48.00
47174;DHT22;36730;49.036;9.094;2022-12-07T14:03:53;27.10;48.70
47174;DHT22;36730;49.036;9.094;2022-12-07T14:06:27;27.10;48.40
47174;DHT22;36730;49.036;9.094;2022-12-07T14:09:06;27.10;48.10
47174;DHT22;36730;49.036;9.094;2022-12-07T14:11:32;27.10;47.30
47174;DHT22;36730;49.036;9.094;2022-12-07T14:14:01;27.10;48.10
47174;DHT22;36730;49.036;9.094;2022-12-07T14:16:31;27.10;48.60
47174;DHT22;36730;49.036;9.094;2022-12-07T14:18:57;27.10;48.50
47174;DHT22;36730;49.036;9.094;2022-12-07T14:21:24;27.10;48.40
47174;DHT22;36730;49.036;9.094;2022-12-07T14:26:35;27.10;47.50
47174;DHT22;36730;49.036;9.094;2022-12-07T14:31:46;27.10;48.20
47174;DHT22;36730;49.036;9.094;2022-12-07T14:34:12;27.10;48.30
47174;DHT22;36730;49.036;9.094;2022-12-07T14:36:37;27.10;48.00
47174;DHT22;36730;49.036;9.094;2022-12-07T14:39:03;27.10;48.30
47174;DHT22;36730;49.036;9.094;2022-12-07T14:41:28;27.10;47.40
47174;DHT22;36730;49.036;9.094;2022-12-07T14:44:12;27.10;47.90
47174;DHT22;36730;49.036;9.094;2022-12-07T14:46:38;27.10;47.50
47174;DHT22;36730;49.036;9.094;2022-12-07T14:49:03;27.10;49.30
47174;DHT22;36730;49.036;9.094;2022-12-07T14:51:29;27.10;49.50
47174;DHT22;36730;49.036;9.094;2022-12-07T14:53:54;27.10;48.40
47174;DHT22;36730;49.036;9.094;2022-12-07T14:56:20;27.10;48.60
47174;DHT22;36730;49.036;9.094;2022-12-07T14:58:46;27.10;49.00
47174;DHT22;36730;49.036;9.094;2022-12-07T15:01:13;27.10;49.00
47174;DHT22;36730;49.036;9.094;2022-12-07T15:03:39;27.10;48.90
47174;DHT22;36730;49.036;9.094;2022-12-07T15:06:04;27.10;49.20
47174;DHT22;36730;49.036;9.094;2022-12-07T15:08:30;27.20;52.40
47174;DHT22;36730;49.036;9.094;2022-12-07T15:10:56;27.20;49.50
47174;DHT22;36730;49.036;9.094;2022-12-07T15:13:21;27.20;48.70
47174;DHT22;36730;49.036;9.094;2022-12-07T15:16:07;27.20;49.40
47174;DHT22;36730;49.036;9.094;2022-12-07T15:18:35;27.20;49.30
47174;DHT22;36730;49.036;9.094;2022-12-07T15:21:00;27.20;48.70
47174;DHT22;36730;49.036;9.094;2022-12-07T15:23:26;27.20;49.10
47174;DHT22;36730;49.036;9.094;2022-12-07T15:25:51;27.20;49.10
47174;DHT22;36730;49.036;9.094;2022-12-07T15:28:17;27.20;49.00
47174;DHT22;36730;49.036;9.094;2022-12-07T15:30:43;27.20;49.30
47174;DHT22;36730;49.036;9.094;2022-12-07T15:33:09;27.20;48.70
47174;DHT22;36730;49.036;9.094;2022-12-07T15:35:38;27.20;49.10
47174;DHT22;36730;49.036;9.094;2022-12-07T15:38:03;27.20;49.10
47174;DHT22;36730;49.036;9.094;2022-12-07T15:40:29;27.20;49.00
47174;DHT22;36730;49.036;9.094;2022-12-07T15:42:54;27.20;48.80
47174;DHT22;36730;49.036;9.094;2022-12-07T15:45:20;27.20;49.30
47174;DHT22;36730;49.036;9.094;2022-12-07T15:47:45;27.10;49.60
47174;DHT22;36730;49.036;9.094;2022-12-07T15:50:12;27.10;49.60
47174;DHT22;36730;49.036;9.094;2022-12-07T15:52:38;27.10;49.60
47174;DHT22;36730;49.036;9.094;2022-12-07T15:55:04;27.10;49.60
47174;DHT22;36730;49.036;9.094;2022-12-07T15:57:30;27.00;49.40
47174;DHT22;36730;49.036;9.094;2022-12-07T15:59:56;27.00;49.30
47174;DHT22;36730;49.036;9.094;2022-12-07T16:02:21;27.00;49.60
47174;DHT22;36730;49.036;9.094;2022-12-07T16:04:47;27.00;49.50
47174;DHT22;36730;49.036;9.094;2022-12-07T16:07:13;26.90;49.60
47174;DHT22;36730;49.036;9.094;2022-12-07T16:09:41;26.90;49.70
47174;DHT22;36730;49.036;9.094;2022-12-07T16:12:07;26.90;49.90
47174;DHT22;36730;49.036;9.094;2022-12-07T16:14:32;26.90;50.20
47174;DHT22;36730;49.036;9.094;2022-12-07T16:16:58;26.80;50.10
47174;DHT22;36730;49.036;9.094;2022-12-07T16:19:24;26.80;50.40
47174;DHT22;36730;49.036;9.094;2022-12-07T16:21:49;26.80;50.40
47174;DHT22;36730;49.036;9.094;2022-12-07T16:24:15;26.70;50.60
47174;DHT22;36730;49.036;9.094;2022-12-07T16:26:41;26.70;50.60
47174;DHT22;36730;49.036;9.094;2022-12-07T16:29:09;26.70;50.60
47174;DHT22;36730;49.036;9.094;2022-12-07T16:31:35;26.70;50.60
47174;DHT22;36730;49.036;9.094;2022-12-07T16:34:01;26.60;50.60
47174;DHT22;36730;49.036;9.094;2022-12-07T16:36:26;26.60;50.70
47174;DHT22;36730;49.036;9.094;2022-12-07T16:38:52;26.50;51.40
47174;DHT22;36730;49.036;9.094;2022-12-07T16:41:18;26.50;51.10
47174;DHT22;36730;49.036;9.094;2022-12-07T16:43:44;26.50;51.00
47174;DHT22;36730;49.036;9.094;2022-12-07T16:46:10;26.40;51.00
47174;DHT22;36730;49.036;9.094;2022-12-07T16:48:36;26.40;51.80
47174;DHT22;36730;49.036;9.094;2022-12-07T16:51:02;26.40;51.20
47174;DHT22;36730;49.036;9.094;2022-12-07T16:53:28;26.30;51.30
47174;DHT22;36730;49.036;9.094;2022-12-07T16:55:53;26.30;51.40
47174;DHT22;36730;49.036;9.094;2022-12-07T16:58:19;26.20;51.30
47174;DHT22;36730;49.036;9.094;2022-12-07T17:00:45;26.20;51.20
47174;DHT22;36730;49.036;9.094;2022-12-07T17:03:10;26.20;51.50
47174;DHT22;36730;49.036;9.094;2022-12-07T17:05:37;26.20;51.70
47174;DHT22;36730;49.036;9.094;2022-12-07T17:08:03;26.20;51.60
47174;DHT22;36730;49.036;9.094;2022-12-07T17:10:28;26.20;51.60
47174;DHT22;36730;49.036;9.094;2022-12-07T17:12:54;26.10;51.70
47174;DHT22;36730;49.036;9.094;2022-12-07T17:15:19;26.10;51.60
47174;DHT22;36730;49.036;9.094;2022-12-07T17:17:56;26.10;51.60